sensor_id;sensor_type;location;lat;lon;timestamp;temperature;humidity
12123;DHT22;6125;59.628;17.852;2023-11-18T00:00:15;0.10;99.90
12123;DHT22;6125;59.628;17.852;2023-11-18T00:02:44;0.10;99.90
12123;DHT22;6125;59.628;17.852;2023-11-18T00:05:12;0.00;99.90
12123;DHT22;6125;59.628;17.852;2023-11-18T00:07:39;0.00;99.90
12123;DHT22;6125;59.628;17.852;2023-11-18T00:10:08;0.00;99.90
12123;DHT22;6125;59.628;17.852;2023-11-18T00:12:36;0.00;99.90
12123;DHT22;6125;59.628;17.852;2023-11-18T00:15:09;-0.10;99.90
12123;DHT22;6125;59.628;17.852;2023-11-18T00:17:41;-0.10;99.90
12123;DHT22;6125;59.628;17.852;2023-11-18T00:20:10;-0.10;99.90
12123;DHT22;6125;59.628;17.852;2023-11-18T00:22:39;-0.10;99.90
12123;DHT22;6125;59.628;17.852;2023-11-18T00:25:07;-0.20;99.90
12123;DHT22;6125;59.628;17.852;2023-11-18T00:27:34;-0.20;99.90
12123;DHT22;6125;59.628;17.852;2023-11-18T00:30:03;-0.20;99.90
12123;DHT22;6125;59.628;17.852;2023-11-18T00:32:41;-0.20;99.90
12123;DHT22;6125;59.628;17.852;2023-11-18T00:35:09;-0.20;99.90
12123;DHT22;6125;59.628;17.852;2023-11-18T00:37:37;-0.20;99.90
12123;DHT22;6125;59.628;17.852;2023-11-18T00:40:05;-0.20;99.90
12123;DHT22;6125;59.628;17.852;2023-11-18T00:42:33;-0.20;99.90
12123;DHT22;6125;59.628;17.852;2023-11-18T00:45:00;-0.20;99.90
12123;DHT22;6125;59.628;17.852;2023-11-18T00:47:27;-0.10;99.90
12123;DHT22;6125;59.628;17.852;2023-11-18T00:49:56;-0.10;99.90
12123;DHT22;6125;59.628;17.852;2023-11-18T00:52:23;-0.10;99.90
12123;DHT22;6125;59.628;17.852;2023-11-18T00:54:50;-0.10;99.90
12123;DHT22;6125;59.628;17.852;2023-11-18T00:57:17;-0.10;99.90
12123;DHT22;6125;59.628;17.852;2023-11-18T00:59:44;-0.10;99.90
12123;DHT22;6125;59.628;17.852;2023-11-18T01:02:11;-0.10;99.90
12123;DHT22;6125;59.628;17.852;2023-11-18T01:04:39;-0.10;99.90
12123;DHT22;6125;59.628;17.852;2023-11-18T01:07:08;-0.10;99.90
12123;DHT22;6125;59.628;17.852;2023-11-18T01:09:35;-0.10;99.90
12123;DHT22;6125;59.628;17.852;2023-11-18T01:12:05;-0.10;99.90
12123;DHT22;6125;59.628;17.852;2023-11-18T01:14:35;-0.10;99.90
12123;DHT22;6125;59.628;17.852;2023-11-18T01:17:03;-0.10;99.90
12123;DHT22;6125;59.628;17.852;2023-11-18T01:19:31;-0.10;99.90
12123;DHT22;6125;59.628;17.852;2023-11-18T01:22:00;-0.20;99.90
12123;DHT22;6125;59.628;17.852;2023-11-18T01:24:32;-0.20;99.90
12123;DHT22;6125;59.628;17.852;2023-11-18T01:27:00;-0.20;99.90
12123;DHT22;6125;59.628;17.852;2023-11-18T01:29:27;-0.30;99.90
12123;DHT22;6125;59.628;17.852;2023-11-18T01:31:54;-0.30;99.90
12123;DHT22;6125;59.628;17.852;2023-11-18T01:34:35;-0.20;99.90
12123;DHT22;6125;59.628;17.852;2023-11-18T01:37:03;-0.20;99.90
12123;DHT22;6125;59.628;17.852;2023-11-18T01:39:34;-0.30;99.90
12123;DHT22;6125;59.628;17.852;2023-11-18T01:42:01;-0.30;99.90
12123;DHT22;6125;59.628;17.852;2023-11-18T01:44:30;-0.30;99.90
12123;DHT22;6125;59.628;17.852;2023-11-18T01:47:02;-0.30;99.90
12123;DHT22;6125;59.628;17.852;2023-11-18T01:49:32;-0.30;99.90
12123;DHT22;6125;59.628;17.852;2023-11-18T01:52:03;-0.30;99.90
12123;DHT22;6125;59.628;17.852;2023-11-18T01:54:35;-0.20;99.90
12123;DHT22;6125;59.628;17.852;2023-11-18T01:57:04;-0.20;99.90
12123;DHT22;6125;59.628;17.852;2023-11-18T01:59:33;-0.20;99.90
12123;DHT22;6125;59.628;17.852;2023-11-18T02:02:01;-0.20;99.90
12123;DHT22;6125;59.628;17.852;2023-11-18T02:04:29;-0.20;99.90
12123;DHT22;6125;59.628;17.852;2023-11-18T02:06:57;-0.20;99.90
12123;DHT22;6125;59.628;17.852;2023-11-18T02:09:24;-0.20;99.90
12123;DHT22;6125;59.628;17.852;2023-11-18T02:12:09;-0.20;99.90
12123;DHT22;6125;59.628;17.852;2023-11-18T02:14:39;-0.20;99.90
12123;DHT22;6125;59.628;17.852;2023-11-18T02:17:09;-0.20;99.90
12123;DHT22;6125;59.628;17.852;2023-11-18T02:19:39;-0.20;99.90
12123;DHT22;6125;59.628;17.852;2023-11-18T02:22:08;-0.20;99.90
12123;DHT22;6125;59.628;17.852;2023-11-18T02:24:36;-0.10;99.90
12123;DHT22;6125;59.628;17.852;2023-11-18T02:27:07;-0.20;99.90
12123;DHT22;6125;59.628;17.852;2023-11-18T02:29:39;-0.20;99.90
12123;DHT22;6125;59.628;17.852;2023-11-18T02:32:13;-0.20;99.90
12123;DHT22;6125;59.628;17.852;2023-11-18T02:34:48;-0.20;99.90
12123;DHT22;6125;59.628;17.852;2023-11-18T02:37:27;-0.10;99.90
12123;DHT22;6125;59.628;17.852;2023-11-18T02:40:01;-0.10;99.90
12123;DHT22;6125;59.628;17.852;2023-11-18T02:42:36;-0.10;99.90
12123;DHT22;6125;59.628;17.852;2023-11-18T02:45:09;-0.10;99.90
12123;DHT22;6125;59.628;17.852;2023-11-18T02:47:38;-0.10;99.90
12123;DHT22;6125;59.628;17.852;2023-11-18T02:50:06;-0.10;99.90
12123;DHT22;6125;59.628;17.852;2023-11-18T02:52:36;-0.10;99.90
12123;DHT22;6125;59.628;17.852;2023-11-18T02:55:04;0.00;99.90
12123;DHT22;6125;59.628;17.852;2023-11-18T02:57:35;0.00;99.90
12123;DHT22;6125;59.628;17.852;2023-11-18T03:00:04;0.00;99.90
12123;DHT22;6125;59.628;17.852;2023-11-18T03:02:36;0.00;99.90
12123;DHT22;6125;59.628;17.852;2023-11-18T03:05:07;-0.10;99.90
12123;DHT22;6125;59.628;17.852;2023-11-18T03:07:37;-0.10;99.90
12123;DHT22;6125;59.628;17.852;2023-11-18T03:10:07;-0.10;99.90
12123;DHT22;6125;59.628;17.852;2023-11-18T03:12:38;-0.10;99.90
12123;DHT22;6125;59.628;17.852;2023-11-18T03:15:06;-0.10;99.90
12123;DHT22;6125;59.628;17.852;2023-11-18T03:17:34;-0.10;99.90
12123;DHT22;6125;59.628;17.852;2023-11-18T03:20:02;-0.20;99.90
12123;DHT22;6125;59.628;17.852;2023-11-18T03:22:31;-0.20;99.90
12123;DHT22;6125;59.628;17.852;2023-11-18T03:24:58;-0.30;99.90
12123;DHT22;6125;59.628;17.852;2023-11-18T03:27:28;-0.30;99.90
12123;DHT22;6125;59.628;17.852;2023-11-18T03:29:58;-0.30;99.90
12123;DHT22;6125;59.628;17.852;2023-11-18T03:32:26;-0.30;99.90
12123;DHT22;6125;59.628;17.852;2023-11-18T03:34:55;-0.30;99.90
12123;DHT22;6125;59.628;17.852;2023-11-18T03:37:24;-0.30;99.90
12123;DHT22;6125;59.628;17.852;2023-11-18T03:39:52;-0.30;99.90
12123;DHT22;6125;59.628;17.852;2023-11-18T03:42:19;-0.30;99.90
12123;DHT22;6125;59.628;17.852;2023-11-18T03:44:47;-0.30;99.90
12123;DHT22;6125;59.628;17.852;2023-11-18T03:47:16;-0.30;99.90
12123;DHT22;6125;59.628;17.852;2023-11-18T03:49:43;-0.30;99.90
12123;DHT22;6125;59.628;17.852;2023-11-18T03:52:10;-0.40;99.90
12123;DHT22;6125;59.628;17.852;2023-11-18T03:54:38;-0.40;99.90
12123;DHT22;6125;59.628;17.852;2023-11-18T03:57:07;-0.40;99.90
12123;DHT22;6125;59.628;17.852;2023-11-18T03:59:34;-0.40;99.90
12123;DHT22;6125;59.628;17.852;2023-11-18T04:02:10;-0.40;99.90
12123;DHT22;6125;59.628;17.852;2023-11-18T04:04:39;-0.40;99.90
12123;DHT22;6125;59.628;17.852;2023-11-18T04:07:06;-0.40;99.90
12123;DHT22;6125;59.628;17.852;2023-11-18T04:09:33;-0.40;99.90
12123;DHT22;6125;59.628;17.852;2023-11-18T04:12:00;-0.40;99.90
12123;DHT22;6125;59.628;17.852;2023-11-18T04:14:27;-0.40;99.90
12123;DHT22;6125;59.628;17.852;2023-11-18T04:16:54;-0.40;99.90
12123;DHT22;6125;59.628;17.852;2023-11-18T04:19:23;-0.40;99.90
12123;DHT22;6125;59.628;17.852;2023-11-18T04:21:52;-0.40;99.90
12123;DHT22;6125;59.628;17.852;2023-11-18T04:24:19;-0.30;99.90
12123;DHT22;6125;59.628;17.852;2023-11-18T04:26:48;-0.40;99.90
12123;DHT22;6125;59.628;17.852;2023-11-18T04:29:15;-0.30;99.90
12123;DHT22;6125;59.628;17.852;2023-11-18T04:31:43;-0.30;99.90
12123;DHT22;6125;59.628;17.852;2023-11-18T04:34:13;-0.30;99.90
12123;DHT22;6125;59.628;17.852;2023-11-18T04:36:41;-0.40;99.90
12123;DHT22;6125;59.628;17.852;2023-11-18T04:39:09;-0.40;99.90
12123;DHT22;6125;59.628;17.852;2023-11-18T04:41:37;-0.40;99.90
12123;DHT22;6125;59.628;17.852;2023-11-18T04:44:05;-0.50;99.90
12123;DHT22;6125;59.628;17.852;2023-11-18T04:46:32;-0.50;99.90
12123;DHT22;6125;59.628;17.852;2023-11-18T04:48:59;-0.50;99.90
12123;DHT22;6125;59.628;17.852;2023-11-18T04:51:27;-0.50;99.90
12123;DHT22;6125;59.628;17.852;2023-11-18T04:53:55;-0.50;99.90
12123;DHT22;6125;59.628;17.852;2023-11-18T04:56:23;-0.50;99.90
12123;DHT22;6125;59.628;17.852;2023-11-18T04:58:50;-0.50;99.90
12123;DHT22;6125;59.628;17.852;2023-11-18T05:01:17;-0.50;99.90
12123;DHT22;6125;59.628;17.852;2023-11-18T05:03:44;-0.50;99.90
12123;DHT22;6125;59.628;17.852;2023-11-18T05:06:12;-0.50;99.90
12123;DHT22;6125;59.628;17.852;2023-11-18T05:08:39;-0.60;99.90
12123;DHT22;6125;59.628;17.852;2023-11-18T05:11:06;-0.70;99.90
12123;DHT22;6125;59.628;17.852;2023-11-18T05:13:36;-0.60;99.90
12123;DHT22;6125;59.628;17.852;2023-11-18T05:16:06;-0.70;99.90
12123;DHT22;6125;59.628;17.852;2023-11-18T05:18:33;-0.70;99.90
12123;DHT22;6125;59.628;17.852;2023-11-18T05:21:02;-0.80;99.90
12123;DHT22;6125;59.628;17.852;2023-11-18T05:23:31;-0.80;99.90
12123;DHT22;6125;59.628;17.852;2023-11-18T05:25:58;-0.80;99.90
12123;DHT22;6125;59.628;17.852;2023-11-18T05:28:30;-0.90;99.90
12123;DHT22;6125;59.628;17.852;2023-11-18T05:30:58;-0.90;99.90
12123;DHT22;6125;59.628;17.852;2023-11-18T05:33:27;-1.00;99.90
12123;DHT22;6125;59.628;17.852;2023-11-18T05:35:54;-1.00;99.90
12123;DHT22;6125;59.628;17.852;2023-11-18T05:38:21;-1.00;99.90
12123;DHT22;6125;59.628;17.852;2023-11-18T05:40:49;-1.00;99.90
12123;DHT22;6125;59.628;17.852;2023-11-18T05:43:22;-1.10;99.90
12123;DHT22;6125;59.628;17.852;2023-11-18T05:45:50;-1.20;99.90
12123;DHT22;6125;59.628;17.852;2023-11-18T05:48:32;-1.20;99.90
12123;DHT22;6125;59.628;17.852;2023-11-18T05:50:59;-1.30;99.90
12123;DHT22;6125;59.628;17.852;2023-11-18T05:53:26;-1.30;99.90
12123;DHT22;6125;59.628;17.852;2023-11-18T05:55:55;-1.30;99.90
12123;DHT22;6125;59.628;17.852;2023-11-18T05:58:22;-1.30;99.90
12123;DHT22;6125;59.628;17.852;2023-11-18T06:00:49;-1.40;99.90
12123;DHT22;6125;59.628;17.852;2023-11-18T06:03:17;-1.50;99.90
12123;DHT22;6125;59.628;17.852;2023-11-18T06:05:47;-1.60;99.90
12123;DHT22;6125;59.628;17.852;2023-11-18T06:08:15;-1.70;99.90
12123;DHT22;6125;59.628;17.852;2023-11-18T06:10:43;-1.70;99.90
12123;DHT22;6125;59.628;17.852;2023-11-18T06:13:11;-1.70;99.90
12123;DHT22;6125;59.628;17.852;2023-11-18T06:15:38;-1.70;99.90
12123;DHT22;6125;59.628;17.852;2023-11-18T06:18:05;-1.70;99.90
12123;DHT22;6125;59.628;17.852;2023-11-18T06:20:34;-1.70;99.90
12123;DHT22;6125;59.628;17.852;2023-11-18T06:23:05;-1.70;99.90
12123;DHT22;6125;59.628;17.852;2023-11-18T06:25:32;-1.70;99.90
12123;DHT22;6125;59.628;17.852;2023-11-18T06:28:00;-1.70;99.90
12123;DHT22;6125;59.628;17.852;2023-11-18T06:30:29;-1.70;99.90
12123;DHT22;6125;59.628;17.852;2023-11-18T06:32:57;-1.70;99.90
12123;DHT22;6125;59.628;17.852;2023-11-18T06:35:24;-1.70;99.90
12123;DHT22;6125;59.628;17.852;2023-11-18T06:37:51;-1.70;99.90
12123;DHT22;6125;59.628;17.852;2023-11-18T06:40:20;-1.70;99.90
12123;DHT22;6125;59.628;17.852;2023-11-18T06:42:47;-1.80;99.90
12123;DHT22;6125;59.628;17.852;2023-11-18T06:45:15;-1.80;99.90
12123;DHT22;6125;59.628;17.852;2023-11-18T06:47:42;-1.80;99.90
12123;DHT22;6125;59.628;17.852;2023-11-18T06:50:10;-1.80;99.90
12123;DHT22;6125;59.628;17.852;2023-11-18T06:52:40;-1.90;99.90
12123;DHT22;6125;59.628;17.852;2023-11-18T06:55:08;-1.90;99.90
12123;DHT22;6125;59.628;17.852;2023-11-18T06:57:38;-2.00;99.90
12123;DHT22;6125;59.628;17.852;2023-11-18T07:00:06;-2.00;99.90
12123;DHT22;6125;59.628;17.852;2023-11-18T07:02:36;-2.10;99.90
12123;DHT22;6125;59.628;17.852;2023-11-18T07:05:04;-2.20;99.90
12123;DHT22;6125;59.628;17.852;2023-11-18T07:07:33;-2.10;99.90
12123;DHT22;6125;59.628;17.852;2023-11-18T07:10:01;-2.20;99.90
12123;DHT22;6125;59.628;17.852;2023-11-18T07:12:28;-2.20;99.90
12123;DHT22;6125;59.628;17.852;2023-11-18T07:14:56;-2.20;99.90
12123;DHT22;6125;59.628;17.852;2023-11-18T07:17:25;-2.30;99.90
12123;DHT22;6125;59.628;17.852;2023-11-18T07:19:52;-2.40;99.90
12123;DHT22;6125;59.628;17.852;2023-11-18T07:22:20;-2.40;99.90
12123;DHT22;6125;59.628;17.852;2023-11-18T07:24:47;-2.40;99.90
12123;DHT22;6125;59.628;17.852;2023-11-18T07:27:15;-2.30;99.90
12123;DHT22;6125;59.628;17.852;2023-11-18T07:29:42;-2.40;99.90
12123;DHT22;6125;59.628;17.852;2023-11-18T07:32:12;-2.40;99.90
12123;DHT22;6125;59.628;17.852;2023-11-18T07:34:39;-2.50;99.90
12123;DHT22;6125;59.628;17.852;2023-11-18T07:37:06;-2.50;99.90
12123;DHT22;6125;59.628;17.852;2023-11-18T07:39:34;-2.50;99.90
12123;DHT22;6125;59.628;17.852;2023-11-18T07:42:10;-2.50;99.90
12123;DHT22;6125;59.628;17.852;2023-11-18T07:44:37;-2.40;99.90
12123;DHT22;6125;59.628;17.852;2023-11-18T07:47:05;-2.40;99.90
12123;DHT22;6125;59.628;17.852;2023-11-18T07:49:37;-2.40;99.90
12123;DHT22;6125;59.628;17.852;2023-11-18T07:52:04;-2.40;99.90
12123;DHT22;6125;59.628;17.852;2023-11-18T07:54:31;-2.30;99.90
12123;DHT22;6125;59.628;17.852;2023-11-18T07:56:58;-2.40;99.90
12123;DHT22;6125;59.628;17.852;2023-11-18T07:59:26;-2.40;99.90
12123;DHT22;6125;59.628;17.852;2023-11-18T08:01:54;-2.50;99.90
12123;DHT22;6125;59.628;17.852;2023-11-18T08:04:22;-2.40;99.90
12123;DHT22;6125;59.628;17.852;2023-11-18T08:06:50;-2.40;99.90
12123;DHT22;6125;59.628;17.852;2023-11-18T08:09:17;-2.40;99.90
12123;DHT22;6125;59.628;17.852;2023-11-18T08:11:49;-2.40;99.90
12123;DHT22;6125;59.628;17.852;2023-11-18T08:14:17;-2.40;99.90
12123;DHT22;6125;59.628;17.852;2023-11-18T08:16:44;-2.30;99.90
12123;DHT22;6125;59.628;17.852;2023-11-18T08:19:11;-2.30;99.90
12123;DHT22;6125;59.628;17.852;2023-11-18T08:21:38;-2.30;99.90
12123;DHT22;6125;59.628;17.852;2023-11-18T08:24:07;-2.20;99.90
12123;DHT22;6125;59.628;17.852;2023-11-18T08:26:34;-2.10;99.90
12123;DHT22;6125;59.628;17.852;2023-11-18T08:29:02;-2.00;99.90
12123;DHT22;6125;59.628;17.852;2023-11-18T08:31:29;-2.10;99.90
12123;DHT22;6125;59.628;17.852;2023-11-18T08:33:56;-2.10;99.90
12123;DHT22;6125;59.628;17.852;2023-11-18T08:36:24;-2.10;99.90
12123;DHT22;6125;59.628;17.852;2023-11-18T08:38:53;-2.10;99.90
12123;DHT22;6125;59.628;17.852;2023-11-18T08:41:24;-2.10;99.90
12123;DHT22;6125;59.628;17.852;2023-11-18T08:43:52;-2.00;99.90
12123;DHT22;6125;59.628;17.852;2023-11-18T08:46:19;-2.10;99.90
12123;DHT22;6125;59.628;17.852;2023-11-18T08:48:46;-2.10;99.90
12123;DHT22;6125;59.628;17.852;2023-11-18T08:51:13;-2.10;99.90
12123;DHT22;6125;59.628;17.852;2023-11-18T08:53:42;-2.10;99.90
12123;DHT22;6125;59.628;17.852;2023-11-18T08:56:12;-2.20;99.90
12123;DHT22;6125;59.628;17.852;2023-11-18T08:58:44;-2.30;99.90
12123;DHT22;6125;59.628;17.852;2023-11-18T09:01:12;-2.30;99.90
12123;DHT22;6125;59.628;17.852;2023-11-18T09:03:39;-2.40;99.90
12123;DHT22;6125;59.628;17.852;2023-11-18T09:06:11;-2.50;99.90
12123;DHT22;6125;59.628;17.852;2023-11-18T09:08:44;-2.50;99.90
12123;DHT22;6125;59.628;17.852;2023-11-18T09:11:13;-2.70;99.90
12123;DHT22;6125;59.628;17.852;2023-11-18T09:13:43;-2.70;99.90
12123;DHT22;6125;59.628;17.852;2023-11-18T09:16:13;-2.70;99.90
12123;DHT22;6125;59.628;17.852;2023-11-18T09:18:43;-2.60;99.90
12123;DHT22;6125;59.628;17.852;2023-11-18T09:21:13;-2.60;99.90
12123;DHT22;6125;59.628;17.852;2023-11-18T09:23:42;-2.50;99.90
12123;DHT22;6125;59.628;17.852;2023-11-18T09:26:10;-2.50;99.90
12123;DHT22;6125;59.628;17.852;2023-11-18T09:28:37;-2.60;99.90
12123;DHT22;6125;59.628;17.852;2023-11-18T09:31:08;-2.80;99.90
12123;DHT22;6125;59.628;17.852;2023-11-18T09:33:39;-2.90;99.90
12123;DHT22;6125;59.628;17.852;2023-11-18T09:36:12;-3.00;99.90
12123;DHT22;6125;59.628;17.852;2023-11-18T09:38:40;-2.90;99.90
12123;DHT22;6125;59.628;17.852;2023-11-18T09:41:08;-2.90;99.90
12123;DHT22;6125;59.628;17.852;2023-11-18T09:43:37;-2.80;99.90
12123;DHT22;6125;59.628;17.852;2023-11-18T09:46:13;-2.80;99.90
12123;DHT22;6125;59.628;17.852;2023-11-18T09:48:43;-2.80;99.90
12123;DHT22;6125;59.628;17.852;2023-11-18T09:51:19;-2.80;99.90
12123;DHT22;6125;59.628;17.852;2023-11-18T09:53:50;-2.90;99.90
12123;DHT22;6125;59.628;17.852;2023-11-18T09:56:23;-2.90;99.90
12123;DHT22;6125;59.628;17.852;2023-11-18T09:59:10;-2.80;99.90
12123;DHT22;6125;59.628;17.852;2023-11-18T10:01:43;-2.80;99.90
12123;DHT22;6125;59.628;17.852;2023-11-18T10:04:11;-2.70;99.90
12123;DHT22;6125;59.628;17.852;2023-11-18T10:06:39;-2.70;99.90
12123;DHT22;6125;59.628;17.852;2023-11-18T10:09:10;-2.40;99.90
12123;DHT22;6125;59.628;17.852;2023-11-18T10:11:47;-2.60;99.90
12123;DHT22;6125;59.628;17.852;2023-11-18T10:14:15;-2.60;99.90
12123;DHT22;6125;59.628;17.852;2023-11-18T10:16:44;-2.50;99.90
12123;DHT22;6125;59.628;17.852;2023-11-18T10:19:14;-2.40;99.90
12123;DHT22;6125;59.628;17.852;2023-11-18T10:21:43;-2.40;99.90
12123;DHT22;6125;59.628;17.852;2023-11-18T10:24:15;-2.40;99.90
12123;DHT22;6125;59.628;17.852;2023-11-18T10:26:46;-2.30;99.90
12123;DHT22;6125;59.628;17.852;2023-11-18T10:29:15;-2.40;99.90
12123;DHT22;6125;59.628;17.852;2023-11-18T10:31:50;-2.20;99.90
12123;DHT22;6125;59.628;17.852;2023-11-18T10:34:29;-2.30;99.90
12123;DHT22;6125;59.628;17.852;2023-11-18T10:37:01;-2.30;99.90
12123;DHT22;6125;59.628;17.852;2023-11-18T10:39:29;-2.20;99.90
12123;DHT22;6125;59.628;17.852;2023-11-18T10:42:01;-2.10;99.90
12123;DHT22;6125;59.628;17.852;2023-11-18T10:44:30;-2.00;99.90
12123;DHT22;6125;59.628;17.852;2023-11-18T10:46:58;-2.00;99.90
12123;DHT22;6125;59.628;17.852;2023-11-18T10:49:27;-1.90;99.90
12123;DHT22;6125;59.628;17.852;2023-11-18T10:51:55;-2.00;99.90
12123;DHT22;6125;59.628;17.852;2023-11-18T10:54:23;-2.00;99.90
12123;DHT22;6125;59.628;17.852;2023-11-18T10:56:52;-2.10;99.90
12123;DHT22;6125;59.628;17.852;2023-11-18T10:59:22;-2.00;99.90
12123;DHT22;6125;59.628;17.852;2023-11-18T11:01:49;-2.10;99.90
12123;DHT22;6125;59.628;17.852;2023-11-18T11:04:20;-2.00;99.90
12123;DHT22;6125;59.628;17.852;2023-11-18T11:06:48;-2.10;99.90
12123;DHT22;6125;59.628;17.852;2023-11-18T11:09:19;-2.10;99.90
12123;DHT22;6125;59.628;17.852;2023-11-18T11:11:59;-2.20;99.90
12123;DHT22;6125;59.628;17.852;2023-11-18T11:14:33;-2.40;99.90
12123;DHT22;6125;59.628;17.852;2023-11-18T11:17:06;-2.40;99.90
12123;DHT22;6125;59.628;17.852;2023-11-18T11:19:50;-2.40;99.90
12123;DHT22;6125;59.628;17.852;2023-11-18T11:22:24;-2.40;99.90
12123;DHT22;6125;59.628;17.852;2023-11-18T11:25:05;-2.40;99.90
12123;DHT22;6125;59.628;17.852;2023-11-18T11:27:41;-2.40;99.90
12123;DHT22;6125;59.628;17.852;2023-11-18T11:30:23;-2.30;99.90
12123;DHT22;6125;59.628;17.852;2023-11-18T11:33:02;-2.40;99.90
12123;DHT22;6125;59.628;17.852;2023-11-18T11:35:33;-2.40;99.90
12123;DHT22;6125;59.628;17.852;2023-11-18T11:38:04;-2.40;99.90
12123;DHT22;6125;59.628;17.852;2023-11-18T11:40:37;-2.40;99.90
12123;DHT22;6125;59.628;17.852;2023-11-18T11:43:06;-2.40;99.90
12123;DHT22;6125;59.628;17.852;2023-11-18T11:45:36;-2.40;99.90
12123;DHT22;6125;59.628;17.852;2023-11-18T11:48:07;-2.40;99.90
12123;DHT22;6125;59.628;17.852;2023-11-18T11:50:53;-2.50;99.90
12123;DHT22;6125;59.628;17.852;2023-11-18T11:53:25;-2.50;99.90
12123;DHT22;6125;59.628;17.852;2023-11-18T11:55:54;-2.50;99.90
12123;DHT22;6125;59.628;17.852;2023-11-18T11:58:31;-2.60;99.90
12123;DHT22;6125;59.628;17.852;2023-11-18T12:00:59;-2.80;99.90
12123;DHT22;6125;59.628;17.852;2023-11-18T12:03:33;-2.80;99.90
12123;DHT22;6125;59.628;17.852;2023-11-18T12:06:07;-2.80;99.90
12123;DHT22;6125;59.628;17.852;2023-11-18T12:08:37;-2.80;99.90
12123;DHT22;6125;59.628;17.852;2023-11-18T12:11:06;-2.80;99.90
12123;DHT22;6125;59.628;17.852;2023-11-18T12:13:37;-2.70;99.90
12123;DHT22;6125;59.628;17.852;2023-11-18T12:16:10;-2.60;99.90
12123;DHT22;6125;59.628;17.852;2023-11-18T12:18:42;-2.60;99.90
12123;DHT22;6125;59.628;17.852;2023-11-18T12:21:11;-2.60;99.90
12123;DHT22;6125;59.628;17.852;2023-11-18T12:24:15;-2.60;99.90
12123;DHT22;6125;59.628;17.852;2023-11-18T12:26:46;-2.60;99.90
12123;DHT22;6125;59.628;17.852;2023-11-18T12:29:31;-2.70;99.90
12123;DHT22;6125;59.628;17.852;2023-11-18T12:31:59;-2.70;99.90
12123;DHT22;6125;59.628;17.852;2023-11-18T12:34:51;-2.70;99.90
12123;DHT22;6125;59.628;17.852;2023-11-18T12:37:48;-2.80;99.90
12123;DHT22;6125;59.628;17.852;2023-11-18T12:43:16;-2.90;99.90
12123;DHT22;6125;59.628;17.852;2023-11-18T12:46:21;-3.10;99.90
12123;DHT22;6125;59.628;17.852;2023-11-18T12:48:58;-3.20;99.90
12123;DHT22;6125;59.628;17.852;2023-11-18T12:51:27;-2.90;99.90
12123;DHT22;6125;59.628;17.852;2023-11-18T12:54:01;-2.90;99.90
12123;DHT22;6125;59.628;17.852;2023-11-18T12:56:32;-2.90;99.90
12123;DHT22;6125;59.628;17.852;2023-11-18T12:59:00;-2.90;99.90
12123;DHT22;6125;59.628;17.852;2023-11-18T13:01:32;-3.00;99.90
12123;DHT22;6125;59.628;17.852;2023-11-18T13:04:02;-3.00;99.90
12123;DHT22;6125;59.628;17.852;2023-11-18T13:06:29;-3.00;99.90
12123;DHT22;6125;59.628;17.852;2023-11-18T13:08:58;-3.10;99.90
12123;DHT22;6125;59.628;17.852;2023-11-18T13:11:25;-3.00;99.90
12123;DHT22;6125;59.628;17.852;2023-11-18T13:13:52;-2.90;99.90
12123;DHT22;6125;59.628;17.852;2023-11-18T13:16:20;-2.80;99.90
12123;DHT22;6125;59.628;17.852;2023-11-18T13:18:48;-2.80;99.90
12123;DHT22;6125;59.628;17.852;2023-11-18T13:21:16;-2.90;99.90
12123;DHT22;6125;59.628;17.852;2023-11-18T13:23:49;-3.10;99.90
12123;DHT22;6125;59.628;17.852;2023-11-18T13:26:20;-3.00;99.90
12123;DHT22;6125;59.628;17.852;2023-11-18T13:28:49;-3.10;99.90
12123;DHT22;6125;59.628;17.852;2023-11-18T13:31:16;-3.20;99.90
12123;DHT22;6125;59.628;17.852;2023-11-18T13:33:47;-3.30;99.90
12123;DHT22;6125;59.628;17.852;2023-11-18T13:36:19;-3.30;99.90
12123;DHT22;6125;59.628;17.852;2023-11-18T13:38:48;-3.30;99.90
12123;DHT22;6125;59.628;17.852;2023-11-18T13:41:29;-3.40;99.90
12123;DHT22;6125;59.628;17.852;2023-11-18T13:43:57;-3.40;99.90
12123;DHT22;6125;59.628;17.852;2023-11-18T13:46:24;-3.50;99.90
12123;DHT22;6125;59.628;17.852;2023-11-18T13:48:52;-3.60;99.90
12123;DHT22;6125;59.628;17.852;2023-11-18T13:51:21;-3.60;99.90
12123;DHT22;6125;59.628;17.852;2023-11-18T13:53:50;-3.70;99.90
12123;DHT22;6125;59.628;17.852;2023-11-18T13:56:23;-3.60;99.90
12123;DHT22;6125;59.628;17.852;2023-11-18T13:58:54;-3.60;99.90
12123;DHT22;6125;59.628;17.852;2023-11-18T14:01:21;-3.60;99.90
12123;DHT22;6125;59.628;17.852;2023-11-18T14:03:50;-3.60;99.90
12123;DHT22;6125;59.628;17.852;2023-11-18T14:06:17;-3.50;99.90
12123;DHT22;6125;59.628;17.852;2023-11-18T14:08:44;-3.40;99.90
12123;DHT22;6125;59.628;17.852;2023-11-18T14:11:12;-3.40;99.90
12123;DHT22;6125;59.628;17.852;2023-11-18T14:13:39;-3.30;99.90
12123;DHT22;6125;59.628;17.852;2023-11-18T14:16:08;-3.30;99.90
12123;DHT22;6125;59.628;17.852;2023-11-18T14:18:37;-3.20;99.90
12123;DHT22;6125;59.628;17.852;2023-11-18T14:21:07;-3.30;99.90
12123;DHT22;6125;59.628;17.852;2023-11-18T14:23:34;-3.10;99.90
12123;DHT22;6125;59.628;17.852;2023-11-18T14:26:03;-3.20;99.90
12123;DHT22;6125;59.628;17.852;2023-11-18T14:28:31;-3.20;99.90
12123;DHT22;6125;59.628;17.852;2023-11-18T14:31:01;-3.20;99.90
12123;DHT22;6125;59.628;17.852;2023-11-18T14:33:31;-3.20;99.90
12123;DHT22;6125;59.628;17.852;2023-11-18T14:36:00;-3.20;99.90
12123;DHT22;6125;59.628;17.852;2023-11-18T14:38:40;-3.20;99.90
12123;DHT22;6125;59.628;17.852;2023-11-18T14:41:07;-3.20;99.90
12123;DHT22;6125;59.628;17.852;2023-11-18T14:43:34;-3.30;99.90
12123;DHT22;6125;59.628;17.852;2023-11-18T14:46:01;-3.20;99.90
12123;DHT22;6125;59.628;17.852;2023-11-18T14:48:30;-3.20;99.90
12123;DHT22;6125;59.628;17.852;2023-11-18T14:50:58;-3.20;99.90
12123;DHT22;6125;59.628;17.852;2023-11-18T14:53:25;-3.20;99.90
12123;DHT22;6125;59.628;17.852;2023-11-18T14:55:54;-3.20;99.90
12123;DHT22;6125;59.628;17.852;2023-11-18T14:58:23;-3.20;99.90
12123;DHT22;6125;59.628;17.852;2023-11-18T15:00:51;-3.40;99.90
12123;DHT22;6125;59.628;17.852;2023-11-18T15:03:22;-3.50;99.90
12123;DHT22;6125;59.628;17.852;2023-11-18T15:05:51;-3.60;99.90
12123;DHT22;6125;59.628;17.852;2023-11-18T15:08:18;-3.70;99.90
12123;DHT22;6125;59.628;17.852;2023-11-18T15:10:46;-3.80;99.90
12123;DHT22;6125;59.628;17.852;2023-11-18T15:13:13;-3.90;99.90
12123;DHT22;6125;59.628;17.852;2023-11-18T15:15:43;-3.90;99.90
12123;DHT22;6125;59.628;17.852;2023-11-18T15:18:13;-3.90;99.90
12123;DHT22;6125;59.628;17.852;2023-11-18T15:20:43;-3.90;99.90
12123;DHT22;6125;59.628;17.852;2023-11-18T15:23:16;-3.90;99.90
12123;DHT22;6125;59.628;17.852;2023-11-18T15:25:43;-3.80;99.90
12123;DHT22;6125;59.628;17.852;2023-11-18T15:28:10;-3.90;99.90
12123;DHT22;6125;59.628;17.852;2023-11-18T15:30:39;-3.90;99.90
12123;DHT22;6125;59.628;17.852;2023-11-18T15:33:09;-3.90;99.90
12123;DHT22;6125;59.628;17.852;2023-11-18T15:35:39;-3.80;99.90
12123;DHT22;6125;59.628;17.852;2023-11-18T15:38:07;-3.80;99.90
12123;DHT22;6125;59.628;17.852;2023-11-18T15:40:37;-3.70;99.90
12123;DHT22;6125;59.628;17.852;2023-11-18T15:43:04;-3.60;99.90
12123;DHT22;6125;59.628;17.852;2023-11-18T15:45:32;-3.60;99.90
12123;DHT22;6125;59.628;17.852;2023-11-18T15:48:00;-3.60;99.90
12123;DHT22;6125;59.628;17.852;2023-11-18T15:50:32;-3.50;99.90